Aérodrome :
LOGIN :

S'inscrire | Disclaimer

   EN    FR    IT 

 










Légende :    VFR   VFR Marginal   IFR   IFR Intensif   IFR Très Intensif
Visi : 
Plafond : 
>= 8 km
>= 3000ft
5 à 8 km
1000 à 3000 ft
1500m à 5 km
500 à 1000 ft
800 à 1500m
200 à 500 ft
< 800m
< 200 ft
Symboles :   Orages  Brouillard  Fortes neiges  Fortes précipitations  Vent > 20 kt
SIGMETs :   Divers  Orages  Givrage  Turbulence  Onde Orograph.  Cendres Volcan.







- Altitude de l'aérodrome : 209 ft
- Code IATA : CLY
- Voir les cartes d'approche


LFKC - Calvi

DERNIER METAR :
  • 180630Z AUTO 00000KT CAVOK 26/14 Q1017 NOSIG

METARs EXPIRÉS :
  • 180600Z AUTO 14002KT CAVOK 23/13 Q1017 NOSIG
  • 180530Z AUTO 17002KT CAVOK 21/13 Q1017 NOSIG
  • 180500Z AUTO 17004KT CAVOK 19/12 Q1016 NOSIG
  • 180430Z AUTO 19005KT 160V220 CAVOK 19/13 Q1016 NOSIG
  • 180400Z AUTO 18004KT CAVOK 19/12 Q1016 NOSIG

TAF TAF LFKC
Valide du 18 à 03h jusqu'au 19 à 03h UTC


180200Z 1803/1903 18005KT CAVOK
BECMG 1808/1810 34006KT TX30/1812Z TN20/1803Z
ATIS : +33 4 95 65 82 49
Pas de NOTAMs connus pour ce terrain.



MET'MAP, la Météo Aéronautique d'un coup d'oeil ! - Copyright ORBIFLY Décembre 2007 - Disclaimer

ORBIFLY MET'MAP TEAM :

Programmation & Développement : Alexandra Zaïnal
Conception & Développement : Baudouin d'Aumeries
Co-Programmation & Développement : Marc-Olivier Méhu
Soutien technique & logistique : Manuel Goepfert

Contact : metmap@orbifly.com




SOURCES & CREDITS :

   NOAA